createdAt,value
2023-02-16T00:00:08.067Z,5.67
2023-02-16T00:05:20.472Z,5.64
2023-02-16T00:10:12.253Z,5.64
2023-02-16T00:15:08.263Z,5.62
2023-02-16T00:20:03.348Z,5.64
2023-02-16T00:24:59.114Z,5.62
2023-02-16T00:29:52.416Z,5.56
2023-02-16T00:34:45.449Z,5.52
2023-02-16T00:39:39.594Z,5.50
2023-02-16T00:44:34.725Z,5.44
2023-02-16T00:49:25.932Z,5.41
2023-02-16T00:54:15.709Z,5.37
2023-02-16T00:59:09.521Z,5.33
2023-02-16T01:04:06.554Z,5.29
2023-02-16T01:09:26.306Z,5.28
2023-02-16T01:14:22.489Z,5.30
2023-02-16T01:19:19.319Z,5.32
2023-02-16T01:24:10.198Z,5.32
2023-02-16T01:29:00.042Z,5.36
2023-02-16T01:33:52.349Z,4.94
2023-02-16T01:38:44.891Z,4.92
2023-02-16T01:43:44.775Z,4.98
2023-02-16T01:48:36.482Z,5.04
2023-02-16T01:53:33.968Z,4.98
2023-02-16T01:58:36.067Z,5.03
2023-02-16T02:03:54.161Z,4.98
2023-02-16T02:08:49.793Z,5.08
2023-02-16T02:13:57.734Z,5.05
2023-02-16T02:18:50.124Z,4.87
2023-02-16T02:23:59.378Z,4.88
2023-02-16T02:28:58.450Z,4.84
2023-02-16T02:33:57.433Z,5.07
2023-02-16T02:38:56.905Z,4.99
2023-02-16T02:43:53.665Z,4.97
2023-02-16T02:48:48.504Z,4.96
2023-02-16T02:53:44.345Z,4.91
2023-02-16T02:58:48.728Z,4.88
2023-02-16T03:03:43.348Z,4.75
2023-02-16T03:08:41.097Z,4.68
2023-02-16T03:13:36.543Z,4.66
2023-02-16T03:18:44.281Z,4.61
2023-02-16T03:23:51.660Z,4.62
2023-02-16T03:28:57.684Z,4.65
2023-02-16T03:33:55.458Z,4.68
2023-02-16T03:38:53.017Z,4.84
2023-02-16T03:43:44.328Z,4.84
2023-02-16T03:48:38.021Z,5.13
2023-02-16T03:53:29.723Z,5.17
2023-02-16T03:58:40.645Z,5.22
2023-02-16T04:03:52.219Z,5.28
2023-02-16T04:08:43.990Z,5.23
2023-02-16T04:13:45.141Z,5.33
2023-02-16T04:18:46.713Z,5.31
2023-02-16T04:23:40.524Z,5.32
2023-02-16T04:28:30.525Z,5.38
2023-02-16T04:33:23.140Z,5.37
2023-02-16T04:38:13.210Z,5.44
2023-02-16T04:43:03.568Z,5.45
2023-02-16T04:47:53.916Z,5.19
2023-02-16T04:52:55.346Z,5.17
2023-02-16T04:57:49.103Z,5.18
2023-02-16T05:02:41.124Z,5.69
2023-02-16T05:07:36.686Z,5.87
2023-02-16T05:12:42.016Z,5.92
2023-02-16T05:17:32.970Z,5.32
2023-02-16T05:22:26.217Z,5.22
2023-02-16T05:27:22.098Z,5.44
2023-02-16T05:32:15.998Z,5.24
2023-02-16T05:37:12.781Z,5.35
2023-02-16T05:42:10.074Z,5.18
2023-02-16T05:47:04.179Z,5.19
2023-02-16T05:52:05.232Z,5.43
2023-02-16T05:56:56.545Z,5.60
2023-02-16T06:01:51.832Z,5.52
2023-02-16T06:06:42.170Z,5.57
2023-02-16T06:11:41.059Z,5.57
2023-02-16T06:16:33.567Z,5.66
2023-02-16T06:21:30.647Z,5.69
2023-02-16T06:26:23.560Z,5.77
2023-02-16T06:31:20.727Z,5.81
2023-02-16T06:36:16.250Z,5.86
2023-02-16T06:41:10.898Z,5.93
2023-02-16T06:46:05.292Z,5.94
2023-02-16T06:50:59.032Z,5.96
2023-02-16T06:55:50.703Z,5.96
2023-02-16T07:00:48.846Z,6.01
2023-02-16T07:05:45.421Z,5.96
2023-02-16T07:10:50.141Z,6.02
2023-02-16T07:15:49.908Z,5.92
2023-02-16T07:20:48.080Z,5.82
2023-02-16T07:25:42.416Z,5.85
2023-02-16T07:30:33.904Z,5.83
2023-02-16T07:35:27.280Z,5.88
2023-02-16T07:40:23.625Z,5.98
2023-02-16T07:45:24.556Z,5.98
2023-02-16T07:50:15.667Z,6.09
2023-02-16T07:55:17.544Z,6.15
2023-02-16T08:00:12.504Z,6.21
2023-02-16T08:05:05.685Z,6.22
2023-02-16T08:09:55.246Z,6.24
2023-02-16T08:14:44.815Z,6.43
2023-02-16T08:19:35.834Z,6.36
2023-02-16T08:24:44.783Z,6.42
2023-02-16T08:29:41.959Z,6.68
2023-02-16T08:34:43.476Z,6.75
2023-02-16T08:39:39.137Z,5.97
2023-02-16T08:44:30.385Z,6.53
2023-02-16T08:49:24.174Z,6.62
2023-02-16T08:54:18.517Z,6.61
2023-02-16T08:59:09.622Z,6.71
2023-02-16T09:04:05.876Z,6.64
2023-02-16T09:09:01.572Z,6.56
2023-02-16T09:13:52.575Z,6.65
2023-02-16T09:18:43.277Z,6.66
2023-02-16T09:23:44.403Z,6.67
2023-02-16T09:28:46.307Z,6.63
2023-02-16T09:33:42.784Z,6.78
2023-02-16T09:38:36.377Z,6.88
2023-02-16T09:43:47.298Z,6.90
2023-02-16T09:48:45.990Z,6.92
2023-02-16T09:53:42.504Z,7.03
2023-02-16T09:58:40.592Z,7.24
2023-02-16T10:03:45.084Z,7.33
2023-02-16T10:08:47.052Z,7.88
2023-02-16T10:13:54.371Z,7.59
2023-02-16T10:18:56.331Z,7.79
2023-02-16T10:23:53.876Z,8.02
2023-02-16T10:28:48.593Z,8.03
2023-02-16T10:33:45.336Z,8.15
2023-02-16T10:38:45.930Z,8.26
2023-02-16T10:43:49.462Z,8.33
2023-02-16T10:48:47.644Z,8.24
2023-02-16T10:53:42.275Z,8.30
2023-02-16T10:58:42.495Z,8.37
2023-02-16T11:03:38.437Z,8.44
2023-02-16T11:08:32.573Z,8.48
2023-02-16T11:13:32.606Z,8.54
2023-02-16T11:18:31.873Z,8.61
2023-02-16T11:23:28.490Z,8.74
2023-02-16T11:28:38.958Z,8.85
2023-02-16T11:33:33.343Z,8.96
2023-02-16T11:38:40.166Z,9.02
2023-02-16T11:43:39.812Z,9.21
2023-02-16T11:48:37.569Z,9.35
2023-02-16T11:53:31.135Z,9.32
2023-02-16T11:58:34.401Z,9.50
2023-02-16T12:03:59.997Z,9.56
2023-02-16T12:09:13.420Z,9.75
2023-02-16T12:14:39.844Z,9.91
2023-02-16T12:19:43.941Z,9.95
2023-02-16T12:24:50.664Z,10.06
2023-02-16T12:29:54.188Z,10.24
2023-02-16T12:35:04.874Z,10.43
2023-02-16T12:40:06.710Z,10.51
2023-02-16T12:45:05.832Z,10.55
2023-02-16T12:50:06.596Z,10.68
2023-02-16T12:55:15.327Z,10.12
2023-02-16T13:00:23.316Z,10.84
2023-02-16T13:05:17.183Z,11.02
2023-02-16T13:10:21.522Z,11.01
2023-02-16T13:15:23.234Z,11.26
2023-02-16T13:20:23.926Z,11.25
2023-02-16T13:25:30.907Z,11.22
2023-02-16T13:30:43.773Z,11.21
2023-02-16T13:35:47.664Z,11.29
2023-02-16T13:40:53.581Z,11.33
2023-02-16T13:45:48.078Z,11.22
2023-02-16T13:50:41.949Z,11.17
2023-02-16T13:55:36.594Z,11.11
2023-02-16T14:00:42.546Z,11.12
2023-02-16T14:05:38.835Z,11.17
2023-02-16T14:10:57.545Z,11.05
2023-02-16T14:15:56.969Z,10.97
2023-02-16T14:21:11.349Z,11.03
2023-02-16T14:26:08.253Z,10.82
2023-02-16T14:31:02.374Z,10.80
2023-02-16T14:36:09.450Z,10.98
2023-02-16T14:41:02.417Z,10.85
2023-02-16T14:46:16.958Z,10.67
2023-02-16T14:51:35.535Z,10.52
2023-02-16T14:56:32.507Z,10.49
2023-02-16T15:01:26.130Z,10.46
2023-02-16T15:06:39.369Z,10.32
2023-02-16T15:11:57.301Z,10.28
2023-02-16T15:16:49.101Z,10.13
2023-02-16T15:21:45.586Z,9.96
2023-02-16T15:26:46.557Z,9.93
2023-02-16T15:31:38.462Z,9.97
2023-02-16T15:36:42.152Z,9.79
2023-02-16T15:41:36.810Z,9.77
2023-02-16T15:46:34.942Z,9.64
2023-02-16T15:51:39.389Z,9.81
2023-02-16T15:56:47.777Z,9.73
2023-02-16T16:01:44.989Z,9.74
2023-02-16T16:06:40.596Z,9.70
2023-02-16T16:11:32.559Z,9.68
2023-02-16T16:16:25.089Z,9.65
2023-02-16T16:21:20.160Z,9.56
2023-02-16T16:26:23.467Z,9.47
2023-02-16T16:31:23.080Z,9.32
2023-02-16T16:36:18.788Z,9.37
2023-02-16T16:41:11.843Z,9.38
2023-02-16T16:46:15.212Z,9.22
2023-02-16T16:51:17.453Z,9.34
2023-02-16T16:56:20.062Z,9.24
2023-02-16T17:01:14.104Z,9.27
2023-02-16T17:06:05.387Z,9.32
2023-02-16T17:11:06.345Z,9.28
2023-02-16T17:16:07.068Z,9.14
2023-02-16T17:20:56.867Z,8.96
2023-02-16T17:25:56.155Z,9.20
2023-02-16T17:30:51.433Z,9.05
2023-02-16T17:35:58.772Z,9.02
2023-02-16T17:40:52.197Z,9.08
2023-02-16T17:45:43.991Z,9.14
2023-02-16T17:50:36.759Z,9.13
2023-02-16T17:55:47.665Z,9.10
2023-02-16T18:00:52.584Z,9.08
2023-02-16T18:05:45.429Z,9.09
2023-02-16T18:10:42.305Z,9.16
2023-02-16T18:15:38.320Z,9.05
2023-02-16T18:20:39.261Z,9.07
2023-02-16T18:25:42.275Z,9.15
2023-02-16T18:30:36.684Z,9.17
2023-02-16T18:35:28.580Z,9.15
2023-02-16T18:40:30.733Z,9.24
2023-02-16T18:45:34.048Z,9.23
2023-02-16T18:50:27.169Z,9.25
2023-02-16T18:55:22.785Z,9.21
2023-02-16T19:00:22.213Z,9.33
2023-02-16T19:05:16.422Z,9.20
2023-02-16T19:10:08.835Z,9.16
2023-02-16T19:15:02.429Z,9.27
2023-02-16T19:19:56.166Z,9.27
2023-02-16T19:24:55.013Z,9.29
2023-02-16T19:30:00.499Z,9.30
2023-02-16T19:34:51.810Z,9.44
2023-02-16T19:39:45.500Z,9.38
2023-02-16T19:44:38.778Z,9.44
2023-02-16T19:49:37.674Z,9.38
2023-02-16T19:54:36.592Z,9.44
2023-02-16T19:59:42.472Z,9.42
2023-02-16T20:04:32.841Z,9.51
2023-02-16T20:09:23.360Z,9.54
2023-02-16T20:14:13.751Z,9.31
2023-02-16T20:19:07.645Z,9.51
2023-02-16T20:23:58.879Z,9.42
2023-02-16T20:28:51.507Z,9.49
2023-02-16T20:33:43.874Z,9.48
2023-02-16T20:38:38.947Z,9.46
2023-02-16T20:43:35.778Z,9.50
2023-02-16T20:48:30.497Z,9.52
2023-02-16T20:53:22.103Z,9.57
2023-02-16T20:58:18.398Z,9.43
2023-02-16T21:03:13.127Z,9.46
2023-02-16T21:08:02.887Z,9.49
2023-02-16T21:12:52.814Z,9.47
2023-02-16T21:17:46.521Z,9.58
2023-02-16T21:22:39.289Z,9.66
2023-02-16T21:27:31.121Z,9.61
2023-02-16T21:32:23.126Z,9.52
2023-02-16T21:37:16.188Z,9.66
2023-02-16T21:42:15.906Z,9.52
2023-02-16T21:47:22.911Z,9.77
2023-02-16T21:52:22.864Z,9.70
2023-02-16T21:57:13.930Z,9.58
2023-02-16T22:02:06.347Z,9.64
2023-02-16T22:06:58.528Z,9.56
2023-02-16T22:11:53.022Z,9.52
2023-02-16T22:16:44.358Z,9.57
2023-02-16T22:21:37.768Z,9.60
2023-02-16T22:26:30.886Z,9.43
2023-02-16T22:31:27.612Z,9.55
2023-02-16T22:36:18.540Z,9.55
2023-02-16T22:41:13.406Z,9.58
2023-02-16T22:46:07.714Z,9.63
2023-02-16T22:51:15.132Z,9.56
2023-02-16T22:56:09.437Z,9.58
2023-02-16T23:01:02.102Z,9.62
2023-02-16T23:05:58.591Z,9.74
2023-02-16T23:11:08.146Z,9.68
2023-02-16T23:16:01.458Z,9.61
2023-02-16T23:20:52.376Z,9.73
2023-02-16T23:25:49.541Z,9.81
2023-02-16T23:30:50.319Z,9.77
2023-02-16T23:35:43.444Z,9.70
2023-02-16T23:40:38.562Z,9.56
2023-02-16T23:45:35.278Z,9.78
2023-02-16T23:50:29.497Z,9.84
2023-02-16T23:55:20.319Z,9.77
